createdAt,value
2023-04-01T00:02:22.057Z,8.25
2023-04-01T00:04:49.676Z,9.93
2023-04-01T00:07:18.731Z,7.65
2023-04-01T00:09:46.580Z,11.07
2023-04-01T00:12:14.174Z,8.13
2023-04-01T00:14:41.759Z,9.27
2023-04-01T00:17:09.367Z,6.30
2023-04-01T00:19:38.458Z,10.80
2023-04-01T00:22:06.313Z,6.95
2023-04-01T00:24:35.276Z,8.52
2023-04-01T00:27:02.868Z,9.20
2023-04-01T00:29:31.627Z,6.45
2023-04-01T00:31:59.604Z,10.35
2023-04-01T00:34:27.458Z,9.20
2023-04-01T00:36:55.241Z,8.45
2023-04-01T00:39:23.265Z,9.15
2023-04-01T00:41:52.232Z,11.75
2023-04-01T00:44:23.451Z,9.00
2023-04-01T00:46:53.443Z,9.73
2023-04-01T00:49:24.413Z,7.20
2023-04-01T00:51:55.563Z,6.97
2023-04-01T00:54:25.976Z,8.63
2023-04-01T00:56:59.065Z,10.05
2023-04-01T00:59:29.469Z,10.75
2023-04-01T01:01:57.217Z,12.98
2023-04-01T01:04:26.520Z,9.57
2023-04-01T01:07:04.678Z,12.52
2023-04-01T01:09:41.673Z,8.70
2023-04-01T01:12:15.372Z,8.60
2023-04-01T01:15:01.420Z,8.55
2023-04-01T01:17:38.755Z,9.73
2023-04-01T01:20:26.490Z,11.02
2023-04-01T01:23:08.683Z,9.68
2023-04-01T01:25:47.002Z,10.05
2023-04-01T01:28:32.750Z,10.30
2023-04-01T01:31:09.748Z,12.82
2023-04-01T01:33:52.840Z,9.57
2023-04-01T01:36:23.335Z,9.38
2023-04-01T01:38:53.589Z,8.00
2023-04-01T01:41:23.104Z,8.32
2023-04-01T01:43:55.336Z,9.43
2023-04-01T01:46:25.325Z,10.43
2023-04-01T01:48:54.212Z,10.77
2023-04-01T01:51:25.532Z,8.32
2023-04-01T01:53:53.101Z,8.55
2023-04-01T01:56:25.444Z,9.93
2023-04-01T01:58:56.707Z,8.95
2023-04-01T02:01:26.891Z,9.13
2023-04-01T02:03:58.159Z,10.88
2023-04-01T02:06:30.973Z,9.48
2023-04-01T02:09:03.310Z,9.15
2023-04-01T02:11:35.361Z,9.40
2023-04-01T02:14:06.630Z,8.32
2023-04-01T02:16:37.791Z,9.18
2023-04-01T02:19:08.328Z,9.15
2023-04-01T02:21:39.844Z,8.57
2023-04-01T02:24:11.796Z,8.05
2023-04-01T02:26:40.881Z,8.05
2023-04-01T02:29:11.397Z,9.27
2023-04-01T02:31:39.686Z,9.45
2023-04-01T02:34:07.505Z,10.68
2023-04-01T02:36:38.668Z,7.65
2023-04-01T02:39:07.509Z,10.02
2023-04-01T02:41:41.482Z,9.18
2023-04-01T02:44:09.490Z,9.15
2023-04-01T02:46:37.161Z,10.68
2023-04-01T02:49:06.039Z,10.43
2023-04-01T02:51:33.702Z,11.25
2023-04-01T02:54:02.693Z,9.35
2023-04-01T02:56:30.524Z,8.18
2023-04-01T02:58:58.641Z,8.05
2023-04-01T03:01:26.288Z,11.60
2023-04-01T03:03:53.924Z,7.60
2023-04-01T03:06:21.585Z,8.32
2023-04-01T03:08:49.256Z,9.13
2023-04-01T03:11:18.379Z,8.57
2023-04-01T03:13:46.086Z,8.85
2023-04-01T03:16:13.709Z,10.02
2023-04-01T03:18:41.690Z,8.93
2023-04-01T03:21:16.708Z,7.80
2023-04-01T03:23:44.586Z,8.45
2023-04-01T03:26:12.484Z,9.02
2023-04-01T03:28:41.464Z,10.32
2023-04-01T03:31:09.552Z,10.80
2023-04-01T03:33:43.669Z,8.00
2023-04-01T03:36:13.650Z,7.90
2023-04-01T03:38:42.411Z,8.23
2023-04-01T03:41:14.269Z,7.40
2023-04-01T03:43:43.837Z,8.85
2023-04-01T03:46:11.970Z,6.35
2023-04-01T03:48:39.681Z,10.05
2023-04-01T03:51:09.043Z,7.85
2023-04-01T03:53:37.067Z,9.15
2023-04-01T03:56:07.445Z,7.75
2023-04-01T03:58:37.065Z,8.05
2023-04-01T04:01:15.589Z,6.60
2023-04-01T04:03:45.172Z,8.38
2023-04-01T04:06:14.056Z,8.52
2023-04-01T04:08:41.899Z,7.70
2023-04-01T04:11:10.073Z,8.68
2023-04-01T04:13:40.694Z,11.38
2023-04-01T04:16:10.767Z,10.55
2023-04-01T04:18:42.184Z,8.40
2023-04-01T04:21:14.185Z,7.78
2023-04-01T04:23:42.674Z,9.77
2023-04-01T04:26:12.624Z,8.80
2023-04-01T04:28:40.619Z,9.75
2023-04-01T04:31:09.756Z,8.75
2023-04-01T04:33:38.243Z,10.13
2023-04-01T04:36:06.569Z,10.82
2023-04-01T04:38:34.207Z,6.93
2023-04-01T04:41:01.930Z,8.63
2023-04-01T04:43:29.982Z,9.75
2023-04-01T04:45:58.204Z,10.73
2023-04-01T04:48:27.122Z,8.95
2023-04-01T04:50:54.764Z,8.70
2023-04-01T04:53:26.232Z,10.85
2023-04-01T04:55:54.297Z,11.80
2023-04-01T04:58:30.888Z,11.27
2023-04-01T05:00:58.766Z,12.68
2023-04-01T05:03:32.112Z,10.75
2023-04-01T05:05:59.789Z,11.55
2023-04-01T05:08:27.373Z,14.02
2023-04-01T05:10:55.952Z,12.02
2023-04-01T05:13:23.653Z,9.70
2023-04-01T05:15:51.340Z,9.57
2023-04-01T05:18:19.107Z,8.88
2023-04-01T05:20:53.788Z,7.82
2023-04-01T05:23:22.550Z,12.07
2023-04-01T05:25:50.712Z,10.98
2023-04-01T05:28:18.621Z,10.73
2023-04-01T05:30:48.353Z,9.82
2023-04-01T05:33:23.293Z,8.98
2023-04-01T05:35:52.659Z,8.63
2023-04-01T05:38:20.404Z,10.80
2023-04-01T05:40:48.011Z,19.17
2023-04-01T05:43:16.219Z,3.72
2023-04-01T05:45:47.018Z,3.88
2023-04-01T05:48:14.603Z,1.65
2023-04-01T05:50:43.210Z,1.50
2023-04-01T05:53:13.823Z,1.65
2023-04-01T05:55:44.017Z,4.18
2023-04-01T05:58:11.795Z,1.38
2023-04-01T06:00:41.350Z,5.97
2023-04-01T06:03:09.318Z,1.30
2023-04-01T06:05:41.732Z,2.13
2023-04-01T06:08:17.195Z,2.30
2023-04-01T06:11:01.591Z,2.03
2023-04-01T06:13:43.978Z,1.67
2023-04-01T06:16:22.745Z,4.53
2023-04-01T06:19:19.475Z,3.15
2023-04-01T06:22:10.764Z,1.90
2023-04-01T06:25:13.831Z,3.05
2023-04-01T06:27:55.824Z,1.88
2023-04-01T06:30:39.013Z,1.88
2023-04-01T06:33:27.103Z,1.70
2023-04-01T06:36:23.505Z,1.75
2023-04-01T06:39:04.742Z,1.80
2023-04-01T06:41:55.933Z,2.00
2023-04-01T06:44:37.279Z,5.25
2023-04-01T06:47:57.990Z,2.88
2023-04-01T06:50:54.026Z,1.60
2023-04-01T06:53:46.774Z,2.40
2023-04-01T06:56:35.048Z,1.67
2023-04-01T06:59:14.586Z,2.85
2023-04-01T07:01:44.657Z,1.15
2023-04-01T07:04:16.997Z,2.88
2023-04-01T07:06:49.031Z,1.33
2023-04-01T07:09:22.152Z,1.55
2023-04-01T07:12:17.861Z,1.60
2023-04-01T07:15:14.241Z,3.60
2023-04-01T07:17:45.145Z,2.35
2023-04-01T07:20:21.846Z,1.38
2023-04-01T07:22:51.743Z,2.50
2023-04-01T07:25:36.106Z,1.35
2023-04-01T07:28:31.687Z,1.38
2023-04-01T07:31:19.075Z,4.95
2023-04-01T07:33:57.115Z,3.00
2023-04-01T07:36:30.932Z,0.90
2023-04-01T07:39:07.014Z,7.18
2023-04-01T07:41:59.731Z,2.25
2023-04-01T07:44:33.337Z,3.50
2023-04-01T07:47:19.820Z,4.88
2023-04-01T07:50:02.534Z,3.13
2023-04-01T07:52:40.249Z,1.70
2023-04-01T07:55:22.769Z,3.13
2023-04-01T07:57:55.840Z,1.60
2023-04-01T08:00:29.304Z,1.20
2023-04-01T08:03:20.201Z,6.63
2023-04-01T08:05:56.877Z,1.85
2023-04-01T08:08:37.632Z,1.83
2023-04-01T08:11:49.773Z,1.90
2023-04-01T08:14:45.584Z,1.90
2023-04-01T08:17:56.197Z,2.22
2023-04-01T08:20:31.565Z,5.32
2023-04-01T08:23:05.584Z,2.75
2023-04-01T08:25:40.697Z,1.50
2023-04-01T08:28:15.124Z,2.40
2023-04-01T08:30:47.927Z,1.85
2023-04-01T08:33:21.438Z,3.67
2023-04-01T08:35:59.760Z,1.80
2023-04-01T08:38:32.947Z,5.47
2023-04-01T08:41:03.530Z,5.00
2023-04-01T08:44:14.806Z,8.75
2023-04-01T08:47:14.284Z,3.78
2023-04-01T08:50:11.665Z,1.30
2023-04-01T08:53:13.726Z,1.55
2023-04-01T08:55:54.330Z,1.40
2023-04-01T08:58:52.592Z,1.02
2023-04-01T09:01:41.843Z,1.00
2023-04-01T09:04:34.614Z,0.80
2023-04-01T09:07:14.949Z,2.00
2023-04-01T09:10:20.382Z,3.10
2023-04-01T09:13:14.999Z,2.10
2023-04-01T09:16:07.246Z,2.22
2023-04-01T09:18:59.758Z,1.80
2023-04-01T09:21:39.537Z,2.15
2023-04-01T09:24:34.478Z,2.10
2023-04-01T09:27:07.492Z,2.42
2023-04-01T09:30:07.783Z,10.68
2023-04-01T09:32:55.421Z,3.50
2023-04-01T09:35:40.958Z,2.65
2023-04-01T09:38:22.794Z,2.35
2023-04-01T09:40:57.582Z,2.72
2023-04-01T09:43:54.815Z,2.80
2023-04-01T09:46:32.191Z,3.03
2023-04-01T09:49:41.222Z,1.65
2023-04-01T09:52:27.726Z,1.00
2023-04-01T09:55:20.890Z,2.20
2023-04-01T09:58:43.339Z,1.75
2023-04-01T10:02:14.263Z,3.00
2023-04-01T10:05:17.390Z,1.80
2023-04-01T10:08:33.919Z,1.38
2023-04-01T10:11:16.881Z,0.90
2023-04-01T10:14:09.545Z,1.63
2023-04-01T10:17:23.313Z,1.05
2023-04-01T10:20:21.541Z,2.25
2023-04-01T10:23:04.371Z,1.70
2023-04-01T10:26:04.889Z,2.05
2023-04-01T10:28:43.587Z,1.02
2023-04-01T10:31:41.480Z,2.30
2023-04-01T10:34:38.000Z,1.42
2023-04-01T10:37:14.992Z,1.33
2023-04-01T10:40:30.151Z,0.63
2023-04-01T10:44:11.398Z,0.50
2023-04-01T10:47:15.476Z,1.27
2023-04-01T10:49:54.709Z,1.58
2023-04-01T10:53:06.820Z,0.60
2023-04-01T10:56:03.454Z,0.63
2023-04-01T10:59:29.182Z,0.75
2023-04-01T11:02:59.353Z,1.05
2023-04-01T11:06:33.351Z,1.55
2023-04-01T11:09:45.941Z,0.85
2023-04-01T11:12:41.817Z,1.15
2023-04-01T11:15:41.088Z,2.08
2023-04-01T11:18:33.270Z,1.15
2023-04-01T11:21:29.734Z,1.17
2023-04-01T11:24:23.560Z,1.27
2023-04-01T11:27:19.850Z,1.58
2023-04-01T11:30:09.548Z,1.38
2023-04-01T11:32:48.618Z,9.70
2023-04-01T11:35:41.016Z,12.32
2023-04-01T11:38:25.524Z,19.73
2023-04-01T11:41:00.144Z,4.65
2023-04-01T11:43:56.408Z,2.90
2023-04-01T11:46:54.845Z,3.45
2023-04-01T11:49:45.900Z,2.90
2023-04-01T11:53:01.540Z,2.25
2023-04-01T11:55:43.913Z,4.15
2023-04-01T11:58:28.959Z,5.05
2023-04-01T12:01:22.244Z,3.22
2023-04-01T12:04:25.661Z,4.88
2023-04-01T12:07:03.382Z,5.30
2023-04-01T12:09:38.989Z,3.78
2023-04-01T12:12:18.245Z,5.07
2023-04-01T12:14:54.299Z,6.03
2023-04-01T12:17:33.214Z,4.65
2023-04-01T12:20:22.436Z,7.60
2023-04-01T12:23:03.336Z,7.93
2023-04-01T12:26:00.560Z,5.75
2023-04-01T12:28:40.143Z,6.28
2023-04-01T12:31:20.602Z,5.88
2023-04-01T12:34:00.640Z,6.32
2023-04-01T12:36:49.890Z,4.90
2023-04-01T12:39:40.358Z,6.55
2023-04-01T12:42:17.958Z,4.15
2023-04-01T12:45:02.544Z,4.55
2023-04-01T12:47:55.801Z,4.53
2023-04-01T12:50:39.410Z,6.55
2023-04-01T12:53:26.604Z,3.92
2023-04-01T12:55:54.506Z,5.28
2023-04-01T12:58:47.771Z,4.40
2023-04-01T13:01:27.966Z,6.47
2023-04-01T13:04:21.682Z,4.88
2023-04-01T13:07:01.529Z,6.45
2023-04-01T13:09:42.096Z,5.57
2023-04-01T13:12:31.445Z,6.60
2023-04-01T13:15:22.569Z,5.60
2023-04-01T13:17:55.541Z,5.63
2023-04-01T13:20:38.978Z,6.18
2023-04-01T13:23:17.454Z,6.93
2023-04-01T13:26:02.252Z,4.95
2023-04-01T13:28:42.560Z,3.88
2023-04-01T13:31:19.757Z,5.85
2023-04-01T13:33:56.869Z,5.82
2023-04-01T13:36:35.454Z,2.90
2023-04-01T13:39:24.369Z,4.32
2023-04-01T13:42:14.886Z,5.85
2023-04-01T13:44:48.622Z,4.00
2023-04-01T13:47:29.423Z,3.08
2023-04-01T13:50:45.823Z,4.18
2023-04-01T13:53:29.096Z,3.70
2023-04-01T13:56:09.564Z,3.85
2023-04-01T13:58:51.662Z,6.72
2023-04-01T14:01:28.662Z,4.65
2023-04-01T14:04:26.720Z,5.90
2023-04-01T14:07:02.804Z,5.30
2023-04-01T14:09:46.759Z,6.25
2023-04-01T14:12:27.986Z,5.93
2023-04-01T14:15:12.382Z,5.28
2023-04-01T14:17:52.235Z,6.38
2023-04-01T14:20:38.765Z,6.45
2023-04-01T14:23:33.356Z,6.15
2023-04-01T14:26:33.238Z,4.72
2023-04-01T14:29:14.354Z,5.30
2023-04-01T14:32:03.934Z,5.10
2023-04-01T14:34:48.055Z,5.70
2023-04-01T14:37:28.601Z,4.40
2023-04-01T14:40:13.844Z,5.63
2023-04-01T14:43:07.690Z,4.40
2023-04-01T14:45:51.573Z,8.05
2023-04-01T14:48:29.057Z,6.68
2023-04-01T14:50:59.658Z,5.57
2023-04-01T14:53:31.159Z,5.20
2023-04-01T14:56:00.913Z,4.30
2023-04-01T14:58:43.390Z,3.45
2023-04-01T15:01:27.973Z,5.50
2023-04-01T15:04:05.858Z,6.72
2023-04-01T15:06:58.145Z,4.03
2023-04-01T15:09:39.883Z,4.22
2023-04-01T15:12:19.263Z,9.18
2023-04-01T15:14:59.908Z,6.22
2023-04-01T15:17:44.926Z,7.90
2023-04-01T15:20:35.629Z,6.40
2023-04-01T15:23:15.875Z,5.53
2023-04-01T15:26:09.204Z,5.80
2023-04-01T15:28:41.929Z,5.65
2023-04-01T15:31:16.967Z,10.82
2023-04-01T15:33:58.441Z,5.95
2023-04-01T15:36:36.917Z,8.18
2023-04-01T15:39:16.209Z,8.75
2023-04-01T15:41:56.473Z,7.90
2023-04-01T15:44:45.397Z,8.98
2023-04-01T15:47:33.994Z,6.55
2023-04-01T15:50:22.566Z,6.90
2023-04-01T15:53:05.371Z,6.13
2023-04-01T15:55:41.754Z,8.95
2023-04-01T15:58:32.615Z,12.40
2023-04-01T16:01:09.416Z,10.93
2023-04-01T16:03:43.205Z,10.77
2023-04-01T16:06:23.642Z,11.05
2023-04-01T16:09:13.752Z,12.55
2023-04-01T16:11:49.577Z,10.40
2023-04-01T16:14:28.923Z,10.20
2023-04-01T16:17:08.831Z,11.05
2023-04-01T16:19:46.749Z,10.75
2023-04-01T16:22:18.592Z,9.38
2023-04-01T16:24:53.647Z,10.88
2023-04-01T16:27:28.975Z,12.20
2023-04-01T16:30:02.373Z,12.38
2023-04-01T16:32:38.972Z,9.65
2023-04-01T16:35:23.759Z,10.57
2023-04-01T16:37:55.269Z,7.30
2023-04-01T16:40:38.389Z,9.65
2023-04-01T16:43:16.214Z,11.43
2023-04-01T16:45:49.301Z,8.88
2023-04-01T16:48:21.121Z,11.25
2023-04-01T16:50:56.211Z,12.55
2023-04-01T16:53:32.820Z,13.52
2023-04-01T16:56:12.722Z,11.63
2023-04-01T16:58:44.377Z,10.77
2023-04-01T17:01:16.727Z,11.10
2023-04-01T17:03:46.821Z,12.93
2023-04-01T17:06:25.617Z,11.50
2023-04-01T17:09:11.872Z,17.17
2023-04-01T17:11:47.688Z,12.60
2023-04-01T17:14:24.605Z,18.27
2023-04-01T17:17:03.525Z,16.52
2023-04-01T17:19:55.949Z,15.07
2023-04-01T17:22:29.976Z,12.63
2023-04-01T17:25:12.693Z,17.23
2023-04-01T17:27:52.795Z,11.25
2023-04-01T17:30:29.905Z,13.88
2023-04-01T17:33:27.759Z,14.32
2023-04-01T17:36:00.407Z,8.90
2023-04-01T17:38:55.602Z,11.00
2023-04-01T17:41:33.873Z,10.65
2023-04-01T17:44:15.756Z,12.52
2023-04-01T17:47:12.625Z,8.13
2023-04-01T17:49:47.396Z,10.45
2023-04-01T17:52:22.161Z,10.75
2023-04-01T17:54:56.467Z,8.60
2023-04-01T17:57:35.006Z,9.63
2023-04-01T18:00:19.580Z,9.68
2023-04-01T18:02:55.654Z,7.55
2023-04-01T18:05:32.674Z,9.95
2023-04-01T18:08:24.690Z,9.40
2023-04-01T18:11:06.730Z,10.05
2023-04-01T18:13:56.759Z,6.47
2023-04-01T18:16:36.299Z,5.65
2023-04-01T18:19:11.573Z,5.70
2023-04-01T18:21:47.524Z,8.02
2023-04-01T18:24:26.662Z,9.43
2023-04-01T18:27:05.000Z,7.65
2023-04-01T18:29:43.424Z,6.63
2023-04-01T18:32:28.317Z,5.70
2023-04-01T18:35:02.409Z,4.63
2023-04-01T18:37:34.666Z,4.55
2023-04-01T18:40:14.538Z,8.02
2023-04-01T18:42:53.946Z,11.95
2023-04-01T18:45:26.136Z,7.10
2023-04-01T18:48:08.760Z,10.52
2023-04-01T18:50:43.005Z,5.15
2023-04-01T18:53:24.330Z,9.25
2023-04-01T18:55:55.714Z,4.90
2023-04-01T18:58:30.085Z,4.90
2023-04-01T19:01:13.083Z,6.22
2023-04-01T19:03:50.314Z,4.97
2023-04-01T19:06:23.808Z,6.07
2023-04-01T19:08:53.996Z,6.03
2023-04-01T19:11:32.268Z,5.75
2023-04-01T19:14:12.013Z,5.22
2023-04-01T19:16:51.340Z,6.35
2023-04-01T19:19:34.924Z,6.47
2023-04-01T19:22:13.214Z,5.30
2023-04-01T19:24:56.980Z,5.53
2023-04-01T19:27:36.366Z,4.32
2023-04-01T19:30:20.034Z,7.30
2023-04-01T19:32:59.075Z,8.38
2023-04-01T19:35:38.180Z,7.55
2023-04-01T19:38:13.237Z,5.60
2023-04-01T19:40:50.438Z,6.30
2023-04-01T19:43:31.300Z,8.07
2023-04-01T19:46:09.437Z,7.95
2023-04-01T19:48:55.544Z,8.02
2023-04-01T19:51:30.173Z,8.35
2023-04-01T19:54:04.208Z,7.70
2023-04-01T19:56:36.801Z,5.95
2023-04-01T19:59:12.953Z,4.13
2023-04-01T20:01:46.859Z,5.53
2023-04-01T20:04:19.158Z,7.07
2023-04-01T20:06:59.343Z,4.93
2023-04-01T20:09:49.294Z,6.07
2023-04-01T20:12:29.482Z,3.83
2023-04-01T20:15:00.489Z,6.65
2023-04-01T20:17:33.420Z,6.50
2023-04-01T20:20:15.543Z,4.80
2023-04-01T20:23:03.216Z,4.32
2023-04-01T20:25:39.891Z,4.85
2023-04-01T20:28:15.246Z,7.25
2023-04-01T20:31:06.555Z,3.88
2023-04-01T20:33:54.861Z,6.88
2023-04-01T20:36:32.933Z,6.47
2023-04-01T20:39:25.965Z,5.75
2023-04-01T20:42:11.741Z,4.15
2023-04-01T20:44:47.005Z,4.13
2023-04-01T20:47:24.837Z,4.20
2023-04-01T20:50:00.410Z,10.45
2023-04-01T20:52:34.788Z,6.63
2023-04-01T20:55:52.695Z,5.60
2023-04-01T20:58:26.030Z,5.88
2023-04-01T21:01:00.914Z,3.38
2023-04-01T21:03:40.187Z,4.38
2023-04-01T21:06:46.742Z,4.53
2023-04-01T21:09:25.256Z,7.05
2023-04-01T21:12:03.315Z,5.78
2023-04-01T21:14:59.970Z,3.47
2023-04-01T21:17:45.411Z,5.18
2023-04-01T21:20:30.574Z,3.30
2023-04-01T21:23:22.212Z,4.30
2023-04-01T21:25:58.202Z,3.92
2023-04-01T21:28:47.872Z,5.13
2023-04-01T21:31:24.759Z,8.20
2023-04-01T21:34:16.225Z,5.07
2023-04-01T21:37:08.768Z,5.25
2023-04-01T21:39:49.564Z,5.38
2023-04-01T21:42:25.745Z,2.88
2023-04-01T21:45:07.209Z,3.10
2023-04-01T21:48:28.671Z,5.82
2023-04-01T21:51:21.705Z,4.70
2023-04-01T21:54:19.091Z,11.13
2023-04-01T21:57:23.817Z,5.55
2023-04-01T22:00:12.048Z,4.80
2023-04-01T22:03:26.893Z,4.95
2023-04-01T22:06:02.609Z,3.75
2023-04-01T22:08:44.083Z,4.28
2023-04-01T22:11:22.769Z,5.07
2023-04-01T22:13:52.734Z,5.70
2023-04-01T22:16:29.145Z,5.68
2023-04-01T22:19:05.278Z,2.65
2023-04-01T22:21:45.772Z,3.08
2023-04-01T22:24:24.517Z,5.18
2023-04-01T22:27:00.892Z,4.25
2023-04-01T22:29:38.680Z,3.65
2023-04-01T22:32:18.515Z,4.28
2023-04-01T22:34:53.207Z,6.20
2023-04-01T22:37:27.683Z,7.15
2023-04-01T22:40:14.557Z,6.20
2023-04-01T22:42:45.647Z,3.88
2023-04-01T22:45:29.184Z,6.45
2023-04-01T22:48:07.786Z,3.92
2023-04-01T22:50:42.292Z,6.00
2023-04-01T22:53:23.341Z,4.82
2023-04-01T22:55:54.133Z,7.60
2023-04-01T22:58:28.144Z,4.00
2023-04-01T23:01:00.454Z,4.97
2023-04-01T23:03:32.223Z,4.80
2023-04-01T23:06:02.097Z,5.30
2023-04-01T23:08:57.425Z,4.22
2023-04-01T23:11:29.044Z,5.00
2023-04-01T23:14:08.905Z,3.88
2023-04-01T23:16:41.096Z,3.03
2023-04-01T23:19:18.410Z,4.07
2023-04-01T23:21:52.942Z,6.35
2023-04-01T23:24:28.260Z,4.30
2023-04-01T23:27:01.095Z,3.38
2023-04-01T23:29:29.342Z,3.95
2023-04-01T23:32:00.993Z,4.60
2023-04-01T23:34:33.273Z,7.63
2023-04-01T23:37:04.736Z,3.88
2023-04-01T23:39:36.679Z,4.30
2023-04-01T23:42:07.618Z,5.22
2023-04-01T23:44:37.405Z,5.63
2023-04-01T23:47:06.577Z,6.60
2023-04-01T23:49:40.559Z,7.93
2023-04-01T23:52:15.428Z,4.78
2023-04-01T23:54:49.033Z,6.82
2023-04-01T23:57:20.499Z,4.53
